createdAt,value
2023-03-30T00:00:28.340Z,8.96
2023-03-30T00:02:55.785Z,9.06
2023-03-30T00:05:23.878Z,8.94
2023-03-30T00:07:51.558Z,8.97
2023-03-30T00:10:19.140Z,8.97
2023-03-30T00:12:48.220Z,8.97
2023-03-30T00:15:16.578Z,8.91
2023-03-30T00:17:45.698Z,8.99
2023-03-30T00:20:13.956Z,8.96
2023-03-30T00:22:42.141Z,8.97
2023-03-30T00:25:10.707Z,9.00
2023-03-30T00:27:38.778Z,9.15
2023-03-30T00:30:07.115Z,8.99
2023-03-30T00:32:35.057Z,8.99
2023-03-30T00:35:05.270Z,8.94
2023-03-30T00:37:33.195Z,8.98
2023-03-30T00:40:00.909Z,8.96
2023-03-30T00:42:28.162Z,9.04
2023-03-30T00:45:26.278Z,9.01
2023-03-30T00:47:57.377Z,9.01
2023-03-30T00:50:29.915Z,9.13
2023-03-30T00:52:58.694Z,9.15
2023-03-30T00:55:28.911Z,9.09
2023-03-30T00:57:56.434Z,9.13
2023-03-30T01:00:23.911Z,9.17
2023-03-30T01:02:55.805Z,9.17
2023-03-30T01:05:24.074Z,9.16
2023-03-30T01:07:53.192Z,9.23
2023-03-30T01:10:21.414Z,9.24
2023-03-30T01:12:49.193Z,9.15
2023-03-30T01:15:17.703Z,9.06
2023-03-30T01:17:54.909Z,9.09
2023-03-30T01:20:40.409Z,9.10
2023-03-30T01:23:18.696Z,9.11
2023-03-30T01:26:01.325Z,9.06
2023-03-30T01:28:40.232Z,9.11
2023-03-30T01:31:30.430Z,9.06
2023-03-30T01:34:15.450Z,9.12
2023-03-30T01:37:00.453Z,9.16
2023-03-30T01:39:35.042Z,9.04
2023-03-30T01:42:09.232Z,9.14
2023-03-30T01:44:42.611Z,9.16
2023-03-30T01:47:16.201Z,9.17
2023-03-30T01:49:46.767Z,9.13
2023-03-30T01:52:17.275Z,9.13
2023-03-30T01:54:48.439Z,9.08
2023-03-30T01:57:17.604Z,9.13
2023-03-30T01:59:49.369Z,9.03
2023-03-30T02:02:19.399Z,9.03
2023-03-30T02:04:48.562Z,9.18
2023-03-30T02:07:18.447Z,9.10
2023-03-30T02:09:49.265Z,9.14
2023-03-30T02:12:17.881Z,9.08
2023-03-30T02:14:45.530Z,9.09
2023-03-30T02:17:15.188Z,9.12
2023-03-30T02:19:46.182Z,9.12
2023-03-30T02:22:13.803Z,9.19
2023-03-30T02:24:41.950Z,9.18
2023-03-30T02:27:10.856Z,9.12
2023-03-30T02:29:40.050Z,9.06
2023-03-30T02:32:07.686Z,9.10
2023-03-30T02:34:44.616Z,9.02
2023-03-30T02:37:19.669Z,9.13
2023-03-30T02:39:56.725Z,9.08
2023-03-30T02:42:35.328Z,9.13
2023-03-30T02:45:10.535Z,9.14
2023-03-30T02:47:42.936Z,8.98
2023-03-30T02:50:17.904Z,9.01
2023-03-30T02:52:52.392Z,9.02
2023-03-30T02:55:22.225Z,9.10
2023-03-30T02:57:56.222Z,9.19
2023-03-30T03:00:26.982Z,9.11
2023-03-30T03:02:57.359Z,9.20
2023-03-30T03:05:26.179Z,9.29
2023-03-30T03:07:53.641Z,9.18
2023-03-30T03:10:21.838Z,9.26
2023-03-30T03:12:49.118Z,9.25
2023-03-30T03:15:17.706Z,9.30
2023-03-30T03:17:45.275Z,9.25
2023-03-30T03:20:13.706Z,9.27
2023-03-30T03:22:40.980Z,9.32
2023-03-30T03:25:08.556Z,9.32
2023-03-30T03:27:36.468Z,9.28
2023-03-30T03:30:04.289Z,9.29
2023-03-30T03:32:32.928Z,9.30
2023-03-30T03:35:00.662Z,9.22
2023-03-30T03:37:27.934Z,9.25
2023-03-30T03:39:55.214Z,9.20
2023-03-30T03:42:22.489Z,9.28
2023-03-30T03:44:49.738Z,9.28
2023-03-30T03:47:17.009Z,9.26
2023-03-30T03:49:45.599Z,9.07
2023-03-30T03:52:12.893Z,9.12
2023-03-30T03:54:40.206Z,9.11
2023-03-30T03:57:07.514Z,9.13
2023-03-30T03:59:34.832Z,9.12
2023-03-30T04:02:02.107Z,9.02
2023-03-30T04:04:29.479Z,9.05
2023-03-30T04:06:58.109Z,8.92
2023-03-30T04:09:25.954Z,8.89
2023-03-30T04:11:53.219Z,8.85
2023-03-30T04:14:20.592Z,8.86
2023-03-30T04:16:49.001Z,8.72
2023-03-30T04:19:16.830Z,8.74
2023-03-30T04:21:47.078Z,8.86
2023-03-30T04:24:15.653Z,8.72
2023-03-30T04:26:48.684Z,8.66
2023-03-30T04:29:16.688Z,8.65
2023-03-30T04:31:46.920Z,8.57
2023-03-30T04:34:14.546Z,8.68
2023-03-30T04:36:43.321Z,8.49
2023-03-30T04:39:11.210Z,8.55
2023-03-30T04:41:41.699Z,8.63
2023-03-30T04:44:10.361Z,8.57
2023-03-30T04:46:38.194Z,8.56
2023-03-30T04:49:05.617Z,8.58
2023-03-30T04:51:32.912Z,8.55
2023-03-30T04:54:00.250Z,8.69
2023-03-30T04:56:27.812Z,8.64
2023-03-30T04:58:56.886Z,8.64
2023-03-30T05:01:24.301Z,8.66
2023-03-30T05:03:52.003Z,8.60
2023-03-30T05:06:19.313Z,8.64
2023-03-30T05:08:46.563Z,8.55
2023-03-30T05:11:13.863Z,8.61
2023-03-30T05:13:41.802Z,8.70
2023-03-30T05:16:10.953Z,8.72
2023-03-30T05:18:38.802Z,8.84
2023-03-30T05:21:06.448Z,8.83
2023-03-30T05:23:33.858Z,8.89
2023-03-30T05:26:01.490Z,8.90
2023-03-30T05:28:31.113Z,8.89
2023-03-30T05:30:59.687Z,8.86
2023-03-30T05:33:28.316Z,8.92
2023-03-30T05:35:55.900Z,9.03
2023-03-30T05:38:23.220Z,9.09
2023-03-30T05:40:52.793Z,9.11
2023-03-30T05:43:20.105Z,9.15
2023-03-30T05:45:47.698Z,9.12
2023-03-30T05:48:14.974Z,9.16
2023-03-30T05:50:44.113Z,9.19
2023-03-30T05:53:11.738Z,9.21
2023-03-30T05:55:39.132Z,9.25
2023-03-30T05:58:06.563Z,9.47
2023-03-30T06:00:36.516Z,9.61
2023-03-30T06:03:04.374Z,9.72
2023-03-30T06:05:33.812Z,9.79
2023-03-30T06:08:04.014Z,9.89
2023-03-30T06:10:31.610Z,10.01
2023-03-30T06:12:58.844Z,10.12
2023-03-30T06:15:27.070Z,9.98
2023-03-30T06:17:54.539Z,10.04
2023-03-30T06:20:24.485Z,10.18
2023-03-30T06:22:52.309Z,10.13
2023-03-30T06:25:21.043Z,10.33
2023-03-30T06:27:48.338Z,10.36
2023-03-30T06:30:16.242Z,10.52
2023-03-30T06:32:43.588Z,10.73
2023-03-30T06:35:13.271Z,11.00
2023-03-30T06:37:40.613Z,11.00
2023-03-30T06:40:12.824Z,11.11
2023-03-30T06:42:41.674Z,11.17
2023-03-30T06:45:10.216Z,11.05
2023-03-30T06:47:37.547Z,11.11
2023-03-30T06:50:05.061Z,11.08
2023-03-30T06:52:34.776Z,11.17
2023-03-30T06:55:02.048Z,11.18
2023-03-30T06:57:29.427Z,11.20
2023-03-30T06:59:58.049Z,11.11
2023-03-30T07:02:25.645Z,11.15
2023-03-30T07:04:53.235Z,11.21
2023-03-30T07:07:20.888Z,11.21
2023-03-30T07:09:48.195Z,11.14
2023-03-30T07:12:15.500Z,11.17
2023-03-30T07:14:42.766Z,11.11
2023-03-30T07:17:11.886Z,11.12
2023-03-30T07:19:39.457Z,11.29
2023-03-30T07:22:06.879Z,11.47
2023-03-30T07:24:34.186Z,11.76
2023-03-30T07:27:01.584Z,12.01
2023-03-30T07:29:29.315Z,12.31
2023-03-30T07:31:57.164Z,12.49
2023-03-30T07:34:25.792Z,12.62
2023-03-30T07:36:54.687Z,12.93
2023-03-30T07:39:22.142Z,13.13
2023-03-30T07:41:49.395Z,13.41
2023-03-30T07:44:16.666Z,13.58
2023-03-30T07:46:44.087Z,13.85
2023-03-30T07:49:11.544Z,13.89
2023-03-30T07:51:40.523Z,13.86
2023-03-30T07:54:10.205Z,13.74
2023-03-30T07:56:39.424Z,13.56
2023-03-30T07:59:07.745Z,13.69
2023-03-30T08:01:35.331Z,13.64
2023-03-30T08:04:02.726Z,13.57
2023-03-30T08:06:30.368Z,13.62
2023-03-30T08:08:58.932Z,13.62
2023-03-30T08:11:26.419Z,13.81
2023-03-30T08:13:53.688Z,13.97
2023-03-30T08:16:21.013Z,14.15
2023-03-30T08:18:48.434Z,14.38
2023-03-30T08:21:16.015Z,14.80
2023-03-30T08:23:43.293Z,14.87
2023-03-30T08:26:11.876Z,14.73
2023-03-30T08:28:39.227Z,14.70
2023-03-30T08:31:07.220Z,14.70
2023-03-30T08:33:35.752Z,14.64
2023-03-30T08:36:03.339Z,14.51
2023-03-30T08:38:30.876Z,14.59
2023-03-30T08:40:58.164Z,14.56
2023-03-30T08:43:37.811Z,14.56
2023-03-30T08:46:05.323Z,14.74
2023-03-30T08:48:37.420Z,14.88
2023-03-30T08:51:09.171Z,14.87
2023-03-30T08:53:36.410Z,14.89
2023-03-30T08:56:07.144Z,14.66
2023-03-30T08:58:41.128Z,14.63
2023-03-30T09:01:14.110Z,14.45
2023-03-30T09:03:43.533Z,14.28
2023-03-30T09:06:13.631Z,14.19
2023-03-30T09:08:41.505Z,14.06
2023-03-30T09:11:12.652Z,13.85
2023-03-30T09:13:41.931Z,13.81
2023-03-30T09:16:14.606Z,13.76
2023-03-30T09:18:42.962Z,13.52
2023-03-30T09:21:11.872Z,13.45
2023-03-30T09:23:39.679Z,13.37
2023-03-30T09:26:11.223Z,13.10
2023-03-30T09:28:44.255Z,13.12
2023-03-30T09:31:16.072Z,13.14
2023-03-30T09:33:46.368Z,12.91
2023-03-30T09:36:17.779Z,12.99
2023-03-30T09:38:45.486Z,12.98
2023-03-30T09:41:25.751Z,12.93
2023-03-30T09:43:54.409Z,13.00
2023-03-30T09:46:21.735Z,12.90
2023-03-30T09:48:50.080Z,12.82
2023-03-30T09:51:22.340Z,12.65
2023-03-30T09:53:50.555Z,12.66
2023-03-30T09:56:20.157Z,12.57
2023-03-30T09:58:47.451Z,12.51
2023-03-30T10:01:18.319Z,12.44
2023-03-30T10:03:46.502Z,12.37
2023-03-30T10:06:16.873Z,12.31
2023-03-30T10:08:45.148Z,12.28
2023-03-30T10:11:13.065Z,12.38
2023-03-30T10:13:42.583Z,12.39
2023-03-30T10:16:13.832Z,12.40
2023-03-30T10:18:44.908Z,12.41
2023-03-30T10:21:18.800Z,12.50
2023-03-30T10:23:47.226Z,12.43
2023-03-30T10:26:18.965Z,12.51
2023-03-30T10:28:52.817Z,12.46
2023-03-30T10:31:21.087Z,12.55
2023-03-30T10:33:50.007Z,12.56
2023-03-30T10:36:19.691Z,12.63
2023-03-30T10:38:47.206Z,12.73
2023-03-30T10:41:16.365Z,12.71
2023-03-30T10:43:44.738Z,12.93
2023-03-30T10:46:20.164Z,13.02
2023-03-30T10:48:54.341Z,13.07
2023-03-30T10:51:26.257Z,13.15
2023-03-30T10:53:59.948Z,13.11
2023-03-30T10:56:31.678Z,13.25
2023-03-30T10:59:08.005Z,13.39
2023-03-30T11:01:39.223Z,13.56
2023-03-30T11:04:22.633Z,13.74
2023-03-30T11:06:53.042Z,13.74
2023-03-30T11:09:23.125Z,13.79
2023-03-30T11:11:52.272Z,13.74
2023-03-30T11:14:22.134Z,13.94
2023-03-30T11:16:54.090Z,14.11
2023-03-30T11:19:25.501Z,14.14
2023-03-30T11:21:57.362Z,14.16
2023-03-30T11:24:25.826Z,13.92
2023-03-30T11:26:56.586Z,13.90
2023-03-30T11:29:28.416Z,13.89
2023-03-30T11:32:00.602Z,13.97
2023-03-30T11:34:32.201Z,13.94
2023-03-30T11:37:01.911Z,14.09
2023-03-30T11:39:32.551Z,14.18
2023-03-30T11:42:05.000Z,14.17
2023-03-30T11:44:32.398Z,14.21
2023-03-30T11:47:05.220Z,14.41
2023-03-30T11:49:39.830Z,14.72
2023-03-30T11:52:17.132Z,14.90
2023-03-30T11:55:04.233Z,15.27
2023-03-30T11:57:35.424Z,15.57
2023-03-30T12:00:10.789Z,15.83
2023-03-30T12:02:42.309Z,16.01
2023-03-30T12:05:17.578Z,16.27
2023-03-30T12:07:50.973Z,16.34
2023-03-30T12:10:21.476Z,16.56
2023-03-30T12:12:51.882Z,16.78
2023-03-30T12:15:28.362Z,16.64
2023-03-30T12:17:58.097Z,16.63
2023-03-30T12:20:32.952Z,16.72
2023-03-30T12:23:03.280Z,16.91
2023-03-30T12:25:34.788Z,16.52
2023-03-30T12:28:11.048Z,16.71
2023-03-30T12:30:48.380Z,16.50
2023-03-30T12:33:19.133Z,16.53
2023-03-30T12:35:55.506Z,16.48
2023-03-30T12:38:25.569Z,16.63
2023-03-30T12:41:04.350Z,16.63
2023-03-30T12:43:37.020Z,16.78
2023-03-30T12:46:08.278Z,17.05
2023-03-30T12:48:42.212Z,17.36
2023-03-30T12:51:17.997Z,17.58
2023-03-30T12:53:55.988Z,17.93
2023-03-30T12:56:28.776Z,18.01
2023-03-30T12:59:14.684Z,18.22
2023-03-30T13:01:51.681Z,18.32
2023-03-30T13:04:22.420Z,18.32
2023-03-30T13:06:53.960Z,18.47
2023-03-30T13:09:35.236Z,18.74
2023-03-30T13:12:22.211Z,18.64
2023-03-30T13:14:58.122Z,19.19
2023-03-30T13:17:27.083Z,19.48
2023-03-30T13:20:18.648Z,19.35
2023-03-30T13:23:00.717Z,18.87
2023-03-30T13:25:30.271Z,18.97
2023-03-30T13:27:58.770Z,18.99
2023-03-30T13:30:28.855Z,18.91
2023-03-30T13:33:01.378Z,18.80
2023-03-30T13:35:31.972Z,18.41
2023-03-30T13:38:08.515Z,18.30
2023-03-30T13:40:46.410Z,18.38
2023-03-30T13:43:33.371Z,18.30
2023-03-30T13:46:15.681Z,18.35
2023-03-30T13:48:51.701Z,18.51
2023-03-30T13:51:20.640Z,18.49
2023-03-30T13:53:51.496Z,18.42
2023-03-30T13:56:18.859Z,18.53
2023-03-30T13:58:49.433Z,18.53
2023-03-30T14:01:22.506Z,18.41
2023-03-30T14:03:50.802Z,18.43
2023-03-30T14:06:19.059Z,18.79
2023-03-30T14:08:47.705Z,18.85
2023-03-30T14:11:18.391Z,19.04
2023-03-30T14:13:46.433Z,18.91
2023-03-30T14:16:17.792Z,18.73
2023-03-30T14:18:45.175Z,18.86
2023-03-30T14:21:15.563Z,18.89
2023-03-30T14:23:45.789Z,19.06
2023-03-30T14:26:14.522Z,18.95
2023-03-30T14:28:43.668Z,18.94
2023-03-30T14:31:15.513Z,18.75
2023-03-30T14:33:42.897Z,18.77
2023-03-30T14:36:12.536Z,18.89
2023-03-30T14:38:40.501Z,18.75
2023-03-30T14:41:08.700Z,18.45
2023-03-30T14:43:39.445Z,18.62
2023-03-30T14:46:10.742Z,18.36
2023-03-30T14:48:38.980Z,18.43
2023-03-30T14:51:09.511Z,18.35
2023-03-30T14:53:36.997Z,18.38
2023-03-30T14:56:05.091Z,18.45
2023-03-30T14:58:33.355Z,18.56
2023-03-30T15:01:09.172Z,18.40
2023-03-30T15:03:39.563Z,18.52
2023-03-30T15:06:07.816Z,18.52
2023-03-30T15:08:37.214Z,18.47
2023-03-30T15:11:11.886Z,18.55
2023-03-30T15:13:41.646Z,18.31
2023-03-30T15:16:09.178Z,18.18
2023-03-30T15:18:38.112Z,18.05
2023-03-30T15:21:05.801Z,17.87
2023-03-30T15:23:36.332Z,17.64
2023-03-30T15:26:05.076Z,16.05
2023-03-30T15:28:34.902Z,15.33
2023-03-30T15:31:02.249Z,15.23
2023-03-30T15:33:32.130Z,15.05
2023-03-30T15:36:08.209Z,15.36
2023-03-30T15:38:42.404Z,15.45
2023-03-30T15:41:13.456Z,15.45
2023-03-30T15:43:52.818Z,15.55
2023-03-30T15:46:20.316Z,15.68
2023-03-30T15:48:48.913Z,15.81
2023-03-30T15:51:20.570Z,15.78
2023-03-30T15:53:50.256Z,15.58
2023-03-30T15:56:19.741Z,15.24
2023-03-30T15:58:47.135Z,14.48
2023-03-30T16:01:15.761Z,14.11
2023-03-30T16:03:50.734Z,13.75
2023-03-30T16:06:20.626Z,13.57
2023-03-30T16:08:47.897Z,13.42
2023-03-30T16:11:16.862Z,12.99
2023-03-30T16:13:45.070Z,12.89
2023-03-30T16:16:13.853Z,12.96
2023-03-30T16:18:42.587Z,12.88
2023-03-30T16:21:10.795Z,12.91
2023-03-30T16:23:39.391Z,12.86
2023-03-30T16:26:07.999Z,12.94
2023-03-30T16:28:35.388Z,13.08
2023-03-30T16:31:05.902Z,13.35
2023-03-30T16:33:33.357Z,13.33
2023-03-30T16:36:00.838Z,13.34
2023-03-30T16:38:28.319Z,13.06
2023-03-30T16:40:58.192Z,13.14
2023-03-30T16:43:27.127Z,13.25
2023-03-30T16:45:54.442Z,13.47
2023-03-30T16:48:21.891Z,13.31
2023-03-30T16:50:51.057Z,13.39
2023-03-30T16:53:21.098Z,13.05
2023-03-30T16:55:48.694Z,13.12
2023-03-30T16:58:17.384Z,13.10
2023-03-30T17:00:46.374Z,13.14
2023-03-30T17:03:13.904Z,12.92
2023-03-30T17:05:41.735Z,13.01
2023-03-30T17:08:15.280Z,12.85
2023-03-30T17:10:42.755Z,12.50
2023-03-30T17:13:11.855Z,12.69
2023-03-30T17:15:40.716Z,12.92
2023-03-30T17:18:09.788Z,12.53
2023-03-30T17:20:38.253Z,12.61
2023-03-30T17:23:05.558Z,12.58
2023-03-30T17:25:35.990Z,12.53
2023-03-30T17:28:05.111Z,12.48
2023-03-30T17:30:34.735Z,12.79
2023-03-30T17:33:03.525Z,12.85
2023-03-30T17:35:30.850Z,12.54
2023-03-30T17:37:58.166Z,12.64
2023-03-30T17:40:26.921Z,12.58
2023-03-30T17:42:54.260Z,12.68
2023-03-30T17:45:22.400Z,12.46
2023-03-30T17:47:49.734Z,12.26
2023-03-30T17:50:23.546Z,12.41
2023-03-30T17:52:51.392Z,12.35
2023-03-30T17:55:19.331Z,12.40
2023-03-30T17:57:46.618Z,12.31
2023-03-30T18:00:17.179Z,12.29
2023-03-30T18:02:44.495Z,12.39
2023-03-30T18:05:11.963Z,12.19
2023-03-30T18:07:40.857Z,12.26
2023-03-30T18:10:15.982Z,12.21
2023-03-30T18:12:43.553Z,11.92
2023-03-30T18:15:11.320Z,11.98
2023-03-30T18:17:38.914Z,12.05
2023-03-30T18:20:20.624Z,11.90
2023-03-30T18:22:49.470Z,11.97
2023-03-30T18:25:29.330Z,11.93
2023-03-30T18:27:59.458Z,11.99
2023-03-30T18:30:28.098Z,12.01
2023-03-30T18:32:55.880Z,11.78
2023-03-30T18:35:24.466Z,11.81
2023-03-30T18:37:53.989Z,11.74
2023-03-30T18:40:23.160Z,11.74
2023-03-30T18:42:50.767Z,11.59
2023-03-30T18:45:19.712Z,11.44
2023-03-30T18:47:47.421Z,11.49
2023-03-30T18:50:16.294Z,11.74
2023-03-30T18:52:43.610Z,11.82
2023-03-30T18:55:12.884Z,11.63
2023-03-30T18:57:40.616Z,11.71
2023-03-30T19:00:13.905Z,11.60
2023-03-30T19:02:41.270Z,11.43
2023-03-30T19:05:10.002Z,11.60
2023-03-30T19:07:37.259Z,11.58
2023-03-30T19:10:04.951Z,11.59
2023-03-30T19:12:33.669Z,11.48
2023-03-30T19:15:01.070Z,11.48
2023-03-30T19:17:28.345Z,11.43
2023-03-30T19:19:55.838Z,11.43
2023-03-30T19:22:23.142Z,11.53
2023-03-30T19:24:50.740Z,11.49
2023-03-30T19:27:18.117Z,11.61
2023-03-30T19:29:46.819Z,11.64
2023-03-30T19:32:14.189Z,11.66
2023-03-30T19:34:41.422Z,11.67
2023-03-30T19:37:08.765Z,11.85
2023-03-30T19:39:36.356Z,11.62
2023-03-30T19:42:03.690Z,11.73
2023-03-30T19:44:31.080Z,11.60
2023-03-30T19:46:59.628Z,11.43
2023-03-30T19:49:26.945Z,11.73
2023-03-30T19:51:54.225Z,11.69
2023-03-30T19:54:21.543Z,11.77
2023-03-30T19:56:48.849Z,11.73
2023-03-30T19:59:17.177Z,11.65
2023-03-30T20:01:46.251Z,11.73
2023-03-30T20:04:14.943Z,11.61
2023-03-30T20:06:42.734Z,11.54
2023-03-30T20:09:10.129Z,11.38
2023-03-30T20:11:37.418Z,11.26
2023-03-30T20:14:04.791Z,11.41
2023-03-30T20:16:35.049Z,11.10
2023-03-30T20:19:12.978Z,11.25
2023-03-30T20:21:47.780Z,11.28
2023-03-30T20:24:15.386Z,11.27
2023-03-30T20:26:42.682Z,11.34
2023-03-30T20:29:09.973Z,11.39
2023-03-30T20:31:37.249Z,11.11
2023-03-30T20:34:04.654Z,11.19
2023-03-30T20:36:32.114Z,11.33
2023-03-30T20:39:01.053Z,11.44
2023-03-30T20:41:29.895Z,11.43
2023-03-30T20:43:57.764Z,11.47
2023-03-30T20:46:34.794Z,11.56
2023-03-30T20:49:02.730Z,11.48
2023-03-30T20:51:30.049Z,11.57
2023-03-30T20:53:57.526Z,11.55
2023-03-30T20:56:27.841Z,11.56
2023-03-30T20:58:55.223Z,11.62
2023-03-30T21:01:25.405Z,11.55
2023-03-30T21:03:54.258Z,11.57
2023-03-30T21:06:23.765Z,11.61
2023-03-30T21:08:51.145Z,11.59
2023-03-30T21:11:18.418Z,11.48
2023-03-30T21:13:47.062Z,11.39
2023-03-30T21:16:14.396Z,11.29
2023-03-30T21:18:41.684Z,11.29
2023-03-30T21:21:09.073Z,11.07
2023-03-30T21:23:38.326Z,11.00
2023-03-30T21:26:07.511Z,11.06
2023-03-30T21:28:35.520Z,11.09
2023-03-30T21:31:05.724Z,11.04
2023-03-30T21:33:33.260Z,11.04
2023-03-30T21:36:00.620Z,11.12
2023-03-30T21:38:28.769Z,11.13
2023-03-30T21:41:00.110Z,11.07
2023-03-30T21:43:28.372Z,11.01
2023-03-30T21:45:56.452Z,11.07
2023-03-30T21:48:25.617Z,10.75
2023-03-30T21:50:58.209Z,10.94
2023-03-30T21:53:25.903Z,10.93
2023-03-30T21:55:53.305Z,10.99
2023-03-30T21:58:20.649Z,11.00
2023-03-30T22:00:53.434Z,10.98
2023-03-30T22:03:29.850Z,10.97
2023-03-30T22:05:58.405Z,11.02
2023-03-30T22:08:25.892Z,11.10
2023-03-30T22:10:56.311Z,11.10
2023-03-30T22:13:23.679Z,11.11
2023-03-30T22:15:56.323Z,11.23
2023-03-30T22:18:23.584Z,11.21
2023-03-30T22:20:52.527Z,11.24
2023-03-30T22:23:20.029Z,11.34
2023-03-30T22:25:47.523Z,11.31
2023-03-30T22:28:14.797Z,11.39
2023-03-30T22:30:42.531Z,11.20
2023-03-30T22:33:10.289Z,11.38
2023-03-30T22:35:38.241Z,11.10
2023-03-30T22:38:07.077Z,11.25
2023-03-30T22:40:35.723Z,11.31
2023-03-30T22:43:03.040Z,11.37
2023-03-30T22:45:30.437Z,11.41
2023-03-30T22:47:58.340Z,11.59
2023-03-30T22:50:26.322Z,11.68
2023-03-30T22:52:54.069Z,11.71
2023-03-30T22:55:23.523Z,11.72
2023-03-30T22:57:52.209Z,11.84
2023-03-30T23:00:21.049Z,11.81
2023-03-30T23:02:49.078Z,11.64
2023-03-30T23:05:16.952Z,11.63
2023-03-30T23:07:45.985Z,11.71
2023-03-30T23:10:15.285Z,11.66
2023-03-30T23:12:44.221Z,11.69
2023-03-30T23:15:11.917Z,11.80
2023-03-30T23:17:39.710Z,11.78
2023-03-30T23:20:10.332Z,11.93
2023-03-30T23:22:37.942Z,11.87
2023-03-30T23:25:07.433Z,11.97
2023-03-30T23:27:34.735Z,11.88
2023-03-30T23:30:04.045Z,11.93
2023-03-30T23:32:31.334Z,11.80
2023-03-30T23:34:58.633Z,11.89
2023-03-30T23:37:26.229Z,11.96
2023-03-30T23:39:53.502Z,11.99
2023-03-30T23:42:21.163Z,11.98
2023-03-30T23:44:48.431Z,12.00
2023-03-30T23:47:17.186Z,12.02
2023-03-30T23:49:44.426Z,12.05
2023-03-30T23:52:11.691Z,12.12
2023-03-30T23:54:40.866Z,12.14
2023-03-30T23:57:08.203Z,12.12
2023-03-30T23:59:36.055Z,12.10
